sensor_id;sensor_type;location;lat;lon;timestamp;pressure;altitude;pressure_sealevel;temperature;humidity
10176;BME280;18221;38.704;0.152;2023-01-27T00:02:38;98620.34;;;11.26;39.35
10176;BME280;18221;38.704;0.152;2023-01-27T00:05:11;98615.47;;;11.21;39.64
10176;BME280;18221;38.704;0.152;2023-01-27T00:07:43;98615.78;;;11.18;39.71
10176;BME280;18221;38.704;0.152;2023-01-27T00:10:16;98618.53;;;11.26;39.20
10176;BME280;18221;38.704;0.152;2023-01-27T00:12:46;98613.34;;;11.25;38.87
10176;BME280;18221;38.704;0.152;2023-01-27T00:15:38;98606.59;;;11.30;38.57
10176;BME280;18221;38.704;0.152;2023-01-27T00:18:11;98603.00;;;11.22;39.03
10176;BME280;18221;38.704;0.152;2023-01-27T00:20:39;98600.66;;;11.18;39.62
10176;BME280;18221;38.704;0.152;2023-01-27T00:23:26;98604.31;;;11.18;39.31
10176;BME280;18221;38.704;0.152;2023-01-27T00:26:14;98602.28;;;11.11;39.26
10176;BME280;18221;38.704;0.152;2023-01-27T00:28:45;98601.00;;;11.15;39.05
10176;BME280;18221;38.704;0.152;2023-01-27T00:31:16;98598.78;;;11.11;39.11
10176;BME280;18221;38.704;0.152;2023-01-27T00:34:04;98590.97;;;11.09;39.18
10176;BME280;18221;38.704;0.152;2023-01-27T00:36:37;98597.41;;;11.07;39.01
10176;BME280;18221;38.704;0.152;2023-01-27T00:39:07;98594.91;;;11.05;39.24
10176;BME280;18221;38.704;0.152;2023-01-27T00:41:38;98594.75;;;11.07;38.76
10176;BME280;18221;38.704;0.152;2023-01-27T00:44:07;98584.81;;;11.09;39.26
10176;BME280;18221;38.704;0.152;2023-01-27T00:46:39;98585.94;;;11.06;39.42
10176;BME280;18221;38.704;0.152;2023-01-27T00:49:12;98584.97;;;11.07;39.31
10176;BME280;18221;38.704;0.152;2023-01-27T00:51:41;98577.31;;;11.04;39.21
10176;BME280;18221;38.704;0.152;2023-01-27T00:54:10;98583.88;;;11.00;39.03
10176;BME280;18221;38.704;0.152;2023-01-27T00:56:40;98578.44;;;11.02;39.63
10176;BME280;18221;38.704;0.152;2023-01-27T00:59:08;98575.63;;;11.03;38.78
10176;BME280;18221;38.704;0.152;2023-01-27T01:01:36;98572.66;;;11.06;38.97
10176;BME280;18221;38.704;0.152;2023-01-27T01:04:05;98570.94;;;10.97;39.11
10176;BME280;18221;38.704;0.152;2023-01-27T01:06:35;98566.91;;;10.93;39.28
10176;BME280;18221;38.704;0.152;2023-01-27T01:09:03;98565.94;;;10.94;39.08
10176;BME280;18221;38.704;0.152;2023-01-27T01:11:32;98560.53;;;10.86;40.03
10176;BME280;18221;38.704;0.152;2023-01-27T01:14:00;98563.41;;;10.93;39.24
10176;BME280;18221;38.704;0.152;2023-01-27T01:16:28;98556.28;;;10.93;39.18
10176;BME280;18221;38.704;0.152;2023-01-27T01:18:58;98559.88;;;10.84;39.75
10176;BME280;18221;38.704;0.152;2023-01-27T01:21:29;98564.34;;;10.84;39.47
10176;BME280;18221;38.704;0.152;2023-01-27T01:23:59;98561.22;;;10.88;39.44
10176;BME280;18221;38.704;0.152;2023-01-27T01:26:28;98557.03;;;10.86;39.06
10176;BME280;18221;38.704;0.152;2023-01-27T01:28:56;98559.88;;;10.84;39.21
10176;BME280;18221;38.704;0.152;2023-01-27T01:31:25;98552.28;;;10.89;38.99
10176;BME280;18221;38.704;0.152;2023-01-27T01:33:53;98555.59;;;10.91;38.46
10176;BME280;18221;38.704;0.152;2023-01-27T01:36:21;98555.31;;;10.94;38.68
10176;BME280;18221;38.704;0.152;2023-01-27T01:38:55;98554.75;;;10.91;38.72
10176;BME280;18221;38.704;0.152;2023-01-27T01:41:26;98554.09;;;10.89;38.69
10176;BME280;18221;38.704;0.152;2023-01-27T01:43:54;98552.56;;;10.86;39.11
10176;BME280;18221;38.704;0.152;2023-01-27T01:46:23;98558.19;;;10.83;39.29
10176;BME280;18221;38.704;0.152;2023-01-27T01:48:56;98547.84;;;10.80;39.64
10176;BME280;18221;38.704;0.152;2023-01-27T01:51:30;98550.88;;;10.85;39.27
10176;BME280;18221;38.704;0.152;2023-01-27T01:54:06;98553.16;;;10.80;39.44
10176;BME280;18221;38.704;0.152;2023-01-27T01:56:42;98550.88;;;10.85;39.65
10176;BME280;18221;38.704;0.152;2023-01-27T01:59:16;98545.19;;;10.80;39.40
10176;BME280;18221;38.704;0.152;2023-01-27T02:01:48;98553.16;;;10.80;38.99
10176;BME280;18221;38.704;0.152;2023-01-27T02:04:21;98550.38;;;10.82;38.99
10176;BME280;18221;38.704;0.152;2023-01-27T02:07:00;98552.88;;;10.83;39.26
10176;BME280;18221;38.704;0.152;2023-01-27T02:09:30;98553.03;;;10.82;38.91
10176;BME280;18221;38.704;0.152;2023-01-27T02:12:00;98552.63;;;10.77;39.44
10176;BME280;18221;38.704;0.152;2023-01-27T02:14:29;98555.16;;;10.78;39.20
10176;BME280;18221;38.704;0.152;2023-01-27T02:16:58;98557.22;;;10.84;38.46
10176;BME280;18221;38.704;0.152;2023-01-27T02:19:40;98561.13;;;10.80;39.70
10176;BME280;18221;38.704;0.152;2023-01-27T02:22:22;98564.09;;;10.77;38.92
10176;BME280;18221;38.704;0.152;2023-01-27T02:25:07;98558.09;;;10.75;38.95
10176;BME280;18221;38.704;0.152;2023-01-27T02:27:40;98553.56;;;10.68;39.14
10176;BME280;18221;38.704;0.152;2023-01-27T02:30:10;98562.28;;;10.60;39.77
10176;BME280;18221;38.704;0.152;2023-01-27T02:32:38;98551.78;;;10.59;39.31
10176;BME280;18221;38.704;0.152;2023-01-27T02:35:12;98556.88;;;10.52;39.78
10176;BME280;18221;38.704;0.152;2023-01-27T02:37:42;98553.69;;;10.48;38.75
10176;BME280;18221;38.704;0.152;2023-01-27T02:40:13;98555.53;;;10.48;38.28
10176;BME280;18221;38.704;0.152;2023-01-27T02:42:46;98558.63;;;10.61;38.05
10176;BME280;18221;38.704;0.152;2023-01-27T02:45:15;98556.41;;;10.57;37.96
10176;BME280;18221;38.704;0.152;2023-01-27T02:47:43;98555.91;;;10.53;37.28
10176;BME280;18221;38.704;0.152;2023-01-27T02:50:11;98557.94;;;10.59;36.96
10176;BME280;18221;38.704;0.152;2023-01-27T02:52:40;98551.88;;;10.67;37.11
10176;BME280;18221;38.704;0.152;2023-01-27T02:55:09;98551.50;;;10.62;36.73
10176;BME280;18221;38.704;0.152;2023-01-27T02:57:38;98540.75;;;10.63;36.50
10176;BME280;18221;38.704;0.152;2023-01-27T03:00:10;98544.38;;;10.62;37.04
10176;BME280;18221;38.704;0.152;2023-01-27T03:02:39;98546.72;;;10.65;37.40
10176;BME280;18221;38.704;0.152;2023-01-27T03:05:08;98542.38;;;10.64;36.80
10176;BME280;18221;38.704;0.152;2023-01-27T03:07:36;98543.53;;;10.62;37.02
10176;BME280;18221;38.704;0.152;2023-01-27T03:10:06;98543.09;;;10.66;36.76
10176;BME280;18221;38.704;0.152;2023-01-27T03:12:35;98542.25;;;10.66;36.66
10176;BME280;18221;38.704;0.152;2023-01-27T03:15:04;98548.69;;;10.63;36.68
10176;BME280;18221;38.704;0.152;2023-01-27T03:17:52;98540.94;;;10.52;36.38
10176;BME280;18221;38.704;0.152;2023-01-27T03:20:40;98547.84;;;10.45;36.84
10176;BME280;18221;38.704;0.152;2023-01-27T03:23:09;98541.34;;;10.57;36.12
10176;BME280;18221;38.704;0.152;2023-01-27T03:25:41;98546.00;;;10.45;36.62
10176;BME280;18221;38.704;0.152;2023-01-27T03:28:10;98540.03;;;10.43;36.76
10176;BME280;18221;38.704;0.152;2023-01-27T03:30:40;98544.94;;;10.38;36.94
10176;BME280;18221;38.704;0.152;2023-01-27T03:33:10;98541.94;;;10.51;37.03
10176;BME280;18221;38.704;0.152;2023-01-27T03:35:39;98549.00;;;10.60;36.37
10176;BME280;18221;38.704;0.152;2023-01-27T03:38:15;98537.72;;;10.58;36.23
10176;BME280;18221;38.704;0.152;2023-01-27T03:41:02;98542.00;;;10.59;36.03
10176;BME280;18221;38.704;0.152;2023-01-27T03:43:48;98543.06;;;10.48;35.87
10176;BME280;18221;38.704;0.152;2023-01-27T03:46:34;98538.00;;;10.55;36.19
10176;BME280;18221;38.704;0.152;2023-01-27T03:49:03;98541.94;;;10.51;36.42
10176;BME280;18221;38.704;0.152;2023-01-27T03:51:32;98528.59;;;10.61;36.59
10176;BME280;18221;38.704;0.152;2023-01-27T03:54:00;98534.88;;;10.60;36.41
10176;BME280;18221;38.704;0.152;2023-01-27T03:56:29;98533.06;;;10.60;35.72
10176;BME280;18221;38.704;0.152;2023-01-27T03:58:57;98526.72;;;10.53;36.32
10176;BME280;18221;38.704;0.152;2023-01-27T04:01:26;98523.88;;;10.54;36.44
10176;BME280;18221;38.704;0.152;2023-01-27T04:03:54;98528.91;;;10.58;35.58
10176;BME280;18221;38.704;0.152;2023-01-27T04:06:42;98526.63;;;10.45;35.56
10176;BME280;18221;38.704;0.152;2023-01-27T04:09:23;98513.44;;;10.53;35.92
10176;BME280;18221;38.704;0.152;2023-01-27T04:11:53;98519.72;;;10.52;35.95
10176;BME280;18221;38.704;0.152;2023-01-27T04:14:28;98519.34;;;10.47;35.62
10176;BME280;18221;38.704;0.152;2023-01-27T04:16:59;98530.41;;;10.42;35.90
10176;BME280;18221;38.704;0.152;2023-01-27T04:19:28;98523.22;;;10.52;36.29
10176;BME280;18221;38.704;0.152;2023-01-27T04:22:00;98522.28;;;10.62;36.33
10176;BME280;18221;38.704;0.152;2023-01-27T04:24:29;98524.81;;;10.63;36.69
10176;BME280;18221;38.704;0.152;2023-01-27T04:27:00;98527.38;;;10.55;35.70
10176;BME280;18221;38.704;0.152;2023-01-27T04:29:31;98532.31;;;10.50;35.48
10176;BME280;18221;38.704;0.152;2023-01-27T04:32:00;98526.06;;;10.59;35.57
10176;BME280;18221;38.704;0.152;2023-01-27T04:34:30;98526.31;;;10.66;36.22
10176;BME280;18221;38.704;0.152;2023-01-27T04:37:00;98529.41;;;10.61;35.69
10176;BME280;18221;38.704;0.152;2023-01-27T04:39:30;98528.91;;;10.58;36.26
10176;BME280;18221;38.704;0.152;2023-01-27T04:41:59;98533.75;;;10.62;36.17
10176;BME280;18221;38.704;0.152;2023-01-27T04:44:27;98529.28;;;10.63;35.70
10176;BME280;18221;38.704;0.152;2023-01-27T04:46:56;98524.84;;;10.53;35.79
10176;BME280;18221;38.704;0.152;2023-01-27T04:49:24;98532.00;;;10.53;36.19
10176;BME280;18221;38.704;0.152;2023-01-27T04:51:53;98525.03;;;10.52;35.43
10176;BME280;18221;38.704;0.152;2023-01-27T04:54:23;98530.09;;;10.45;35.52
10176;BME280;18221;38.704;0.152;2023-01-27T04:56:58;98532.22;;;10.42;36.14
10176;BME280;18221;38.704;0.152;2023-01-27T04:59:27;98525.50;;;10.47;35.95
10176;BME280;18221;38.704;0.152;2023-01-27T05:01:55;98528.53;;;10.52;35.94
10176;BME280;18221;38.704;0.152;2023-01-27T05:04:24;98516.50;;;10.48;35.64
10176;BME280;18221;38.704;0.152;2023-01-27T05:06:56;98524.34;;;10.50;35.58
10176;BME280;18221;38.704;0.152;2023-01-27T05:09:26;98522.53;;;10.50;35.54
10176;BME280;18221;38.704;0.152;2023-01-27T05:11:54;98525.63;;;10.46;35.68
10176;BME280;18221;38.704;0.152;2023-01-27T05:14:22;98522.59;;;10.41;36.34
10176;BME280;18221;38.704;0.152;2023-01-27T05:16:51;98523.13;;;10.44;36.26
10176;BME280;18221;38.704;0.152;2023-01-27T05:19:20;98521.41;;;10.53;36.11
10176;BME280;18221;38.704;0.152;2023-01-27T05:21:48;98521.41;;;10.53;35.57
10176;BME280;18221;38.704;0.152;2023-01-27T05:24:16;98524.66;;;10.47;36.06
10176;BME280;18221;38.704;0.152;2023-01-27T05:26:46;98523.88;;;10.37;36.23
10176;BME280;18221;38.704;0.152;2023-01-27T05:29:15;98531.16;;;10.35;35.84
10176;BME280;18221;38.704;0.152;2023-01-27T05:31:43;98529.03;;;10.38;36.00
10176;BME280;18221;38.704;0.152;2023-01-27T05:34:11;98534.50;;;10.37;36.25
10176;BME280;18221;38.704;0.152;2023-01-27T05:36:39;98529.09;;;10.29;36.00
10176;BME280;18221;38.704;0.152;2023-01-27T05:39:10;98522.78;;;10.30;36.26
10176;BME280;18221;38.704;0.152;2023-01-27T05:41:39;98519.16;;;10.31;36.39
10176;BME280;18221;38.704;0.152;2023-01-27T05:44:12;98530.75;;;10.30;36.40
10176;BME280;18221;38.704;0.152;2023-01-27T05:46:41;98522.38;;;10.34;35.97
10176;BME280;18221;38.704;0.152;2023-01-27T05:49:10;98528.94;;;10.30;36.49
10176;BME280;18221;38.704;0.152;2023-01-27T05:51:39;98537.34;;;10.26;35.86
10176;BME280;18221;38.704;0.152;2023-01-27T05:54:08;98529.84;;;10.21;36.20
10176;BME280;18221;38.704;0.152;2023-01-27T05:56:37;98521.72;;;10.23;36.14
10176;BME280;18221;38.704;0.152;2023-01-27T05:59:06;98522.47;;;10.15;36.20
10176;BME280;18221;38.704;0.152;2023-01-27T06:01:37;98527.31;;;10.20;36.11
10176;BME280;18221;38.704;0.152;2023-01-27T06:04:06;98530.97;;;10.19;36.69
10176;BME280;18221;38.704;0.152;2023-01-27T06:06:34;98523.41;;;10.24;36.17
10176;BME280;18221;38.704;0.152;2023-01-27T06:09:03;98526.94;;;10.15;36.66
10176;BME280;18221;38.704;0.152;2023-01-27T06:11:31;98524.00;;;10.18;36.57
10176;BME280;18221;38.704;0.152;2023-01-27T06:14:00;98520.38;;;10.19;36.38
10176;BME280;18221;38.704;0.152;2023-01-27T06:16:28;98526.94;;;10.15;36.18
10176;BME280;18221;38.704;0.152;2023-01-27T06:18:59;98527.63;;;10.17;36.54
10176;BME280;18221;38.704;0.152;2023-01-27T06:21:27;98528.75;;;10.14;36.36
10176;BME280;18221;38.704;0.152;2023-01-27T06:23:56;98530.59;;;10.14;36.65
10176;BME280;18221;38.704;0.152;2023-01-27T06:26:25;98527.63;;;10.17;36.58
10176;BME280;18221;38.704;0.152;2023-01-27T06:28:55;98526.81;;;10.16;36.03
10176;BME280;18221;38.704;0.152;2023-01-27T06:31:24;98528.03;;;10.22;36.17
10176;BME280;18221;38.704;0.152;2023-01-27T06:33:53;98527.56;;;10.26;35.79
10176;BME280;18221;38.704;0.152;2023-01-27T06:36:23;98524.38;;;10.23;36.58
10176;BME280;18221;38.704;0.152;2023-01-27T06:38:51;98529.69;;;10.23;35.94
10176;BME280;18221;38.704;0.152;2023-01-27T06:41:20;98526.75;;;10.26;35.64
10176;BME280;18221;38.704;0.152;2023-01-27T06:43:48;98524.94;;;10.26;36.01
10176;BME280;18221;38.704;0.152;2023-01-27T06:46:17;98525.38;;;10.22;35.89
10176;BME280;18221;38.704;0.152;2023-01-27T06:48:45;98526.91;;;10.24;35.90
10176;BME280;18221;38.704;0.152;2023-01-27T06:51:14;98529.16;;;10.19;36.17
10176;BME280;18221;38.704;0.152;2023-01-27T06:53:43;98527.31;;;10.20;35.48
10176;BME280;18221;38.704;0.152;2023-01-27T06:56:12;98528.72;;;10.24;35.39
10176;BME280;18221;38.704;0.152;2023-01-27T06:58:40;98527.31;;;10.20;36.13
10176;BME280;18221;38.704;0.152;2023-01-27T07:01:09;98521.34;;;10.18;35.73
10176;BME280;18221;38.704;0.152;2023-01-27T07:03:38;98533.94;;;10.16;35.45
10176;BME280;18221;38.704;0.152;2023-01-27T07:06:07;98529.78;;;10.04;35.97
10176;BME280;18221;38.704;0.152;2023-01-27T07:08:36;98538.56;;;10.04;35.64
10176;BME280;18221;38.704;0.152;2023-01-27T07:11:06;98536.16;;;10.11;35.70
10176;BME280;18221;38.704;0.152;2023-01-27T07:13:35;98541.59;;;10.19;35.71
10176;BME280;18221;38.704;0.152;2023-01-27T07:16:04;98544.88;;;10.03;35.65
10176;BME280;18221;38.704;0.152;2023-01-27T07:18:32;98539.41;;;10.05;35.64
10176;BME280;18221;38.704;0.152;2023-01-27T07:21:03;98548.03;;;10.16;35.65
10176;BME280;18221;38.704;0.152;2023-01-27T07:23:32;98543.56;;;10.07;35.79
10176;BME280;18221;38.704;0.152;2023-01-27T07:26:01;98538.81;;;10.11;35.64
10176;BME280;18221;38.704;0.152;2023-01-27T07:28:31;98546.91;;;10.09;35.81
10176;BME280;18221;38.704;0.152;2023-01-27T07:31:02;98540.19;;;9.87;36.11
10176;BME280;18221;38.704;0.152;2023-01-27T07:33:31;98547.88;;;9.81;36.06
10176;BME280;18221;38.704;0.152;2023-01-27T07:35:59;98550.97;;;9.76;36.28
10176;BME280;18221;38.704;0.152;2023-01-27T07:38:28;98558.38;;;9.73;36.52
10176;BME280;18221;38.704;0.152;2023-01-27T07:40:56;98553.91;;;9.73;36.61
10176;BME280;18221;38.704;0.152;2023-01-27T07:43:25;98561.59;;;9.76;36.25
10176;BME280;18221;38.704;0.152;2023-01-27T07:45:55;98560.22;;;9.72;36.61
10176;BME280;18221;38.704;0.152;2023-01-27T07:48:23;98561.00;;;9.82;36.61
10176;BME280;18221;38.704;0.152;2023-01-27T07:50:52;98563.66;;;9.82;36.17
10176;BME280;18221;38.704;0.152;2023-01-27T07:53:20;98568.53;;;9.87;36.13
10176;BME280;18221;38.704;0.152;2023-01-27T07:55:49;98576.75;;;9.84;36.92
10176;BME280;18221;38.704;0.152;2023-01-27T07:58:17;98574.31;;;10.00;36.59
10176;BME280;18221;38.704;0.152;2023-01-27T08:00:46;98569.56;;;10.04;35.97
10176;BME280;18221;38.704;0.152;2023-01-27T08:03:22;98587.19;;;9.95;36.04
10176;BME280;18221;38.704;0.152;2023-01-27T08:05:51;98574.94;;;9.84;35.90
10176;BME280;18221;38.704;0.152;2023-01-27T08:08:19;98586.75;;;10.00;35.88
10176;BME280;18221;38.704;0.152;2023-01-27T08:10:48;98577.50;;;10.13;35.34
10176;BME280;18221;38.704;0.152;2023-01-27T08:13:16;98586.63;;;9.91;35.03
10176;BME280;18221;38.704;0.152;2023-01-27T08:15:45;98584.78;;;10.02;34.76
10176;BME280;18221;38.704;0.152;2023-01-27T08:18:13;98583.78;;;10.12;34.99
10176;BME280;18221;38.704;0.152;2023-01-27T08:20:43;98582.38;;;10.18;34.53
10176;BME280;18221;38.704;0.152;2023-01-27T08:23:12;98591.88;;;10.11;34.74
10176;BME280;18221;38.704;0.152;2023-01-27T08:25:40;98584.50;;;10.05;34.87
10176;BME280;18221;38.704;0.152;2023-01-27T08:28:08;98587.13;;;10.14;34.38
10176;BME280;18221;38.704;0.152;2023-01-27T08:30:39;98586.31;;;10.14;33.93
10176;BME280;18221;38.704;0.152;2023-01-27T08:33:07;98585.19;;;10.07;34.68
10176;BME280;18221;38.704;0.152;2023-01-27T08:35:36;98595.34;;;10.21;34.40
10176;BME280;18221;38.704;0.152;2023-01-27T08:38:10;98596.03;;;10.23;34.19
10176;BME280;18221;38.704;0.152;2023-01-27T08:40:40;98596.75;;;10.15;34.54
10176;BME280;18221;38.704;0.152;2023-01-27T08:43:09;98602.41;;;10.30;34.23
10176;BME280;18221;38.704;0.152;2023-01-27T08:45:38;98603.00;;;10.24;33.94
10176;BME280;18221;38.704;0.152;2023-01-27T08:48:06;98602.06;;;10.15;33.07
10176;BME280;18221;38.704;0.152;2023-01-27T08:50:34;98606.19;;;10.27;33.34
10176;BME280;18221;38.704;0.152;2023-01-27T08:53:03;98606.75;;;10.31;33.52
10176;BME280;18221;38.704;0.152;2023-01-27T08:55:33;98605.66;;;10.24;33.52
10176;BME280;18221;38.704;0.152;2023-01-27T08:58:01;98606.91;;;10.29;33.66
10176;BME280;18221;38.704;0.152;2023-01-27T09:00:30;98607.94;;;10.19;32.85
10176;BME280;18221;38.704;0.152;2023-01-27T09:02:58;98609.16;;;10.24;32.57
10176;BME280;18221;38.704;0.152;2023-01-27T09:05:27;98618.66;;;10.27;33.55
10176;BME280;18221;38.704;0.152;2023-01-27T09:07:55;98604.25;;;10.29;33.38
10176;BME280;18221;38.704;0.152;2023-01-27T09:10:24;98607.22;;;10.44;32.60
10176;BME280;18221;38.704;0.152;2023-01-27T09:12:54;98610.19;;;10.41;33.27
10176;BME280;18221;38.704;0.152;2023-01-27T09:15:22;98615.59;;;10.49;32.98
10176;BME280;18221;38.704;0.152;2023-01-27T09:17:51;98615.13;;;10.53;32.98
10176;BME280;18221;38.704;0.152;2023-01-27T09:20:19;98620.44;;;10.53;33.09
10176;BME280;18221;38.704;0.152;2023-01-27T09:22:48;98620.97;;;10.57;32.46
10176;BME280;18221;38.704;0.152;2023-01-27T09:25:17;98617.94;;;10.52;32.18
10176;BME280;18221;38.704;0.152;2023-01-27T09:27:45;98624.84;;;10.45;32.58
10176;BME280;18221;38.704;0.152;2023-01-27T09:30:16;98631.84;;;10.64;32.86
10176;BME280;18221;38.704;0.152;2023-01-27T09:32:44;98625.47;;;10.74;31.85
10176;BME280;18221;38.704;0.152;2023-01-27T09:35:13;98632.31;;;10.77;32.28
10176;BME280;18221;38.704;0.152;2023-01-27T09:37:45;98629.44;;;10.88;32.63
10176;BME280;18221;38.704;0.152;2023-01-27T09:40:29;98624.13;;;10.88;31.99
10176;BME280;18221;38.704;0.152;2023-01-27T09:43:35;98625.44;;;11.01;32.46
10176;BME280;18221;38.704;0.152;2023-01-27T09:49:47;98626.31;;;10.92;31.28
10176;BME280;18221;38.704;0.152;2023-01-27T09:52:42;98624.41;;;10.85;31.52
10176;BME280;18221;38.704;0.152;2023-01-27T09:55:23;98616.16;;;10.88;31.75
10176;BME280;18221;38.704;0.152;2023-01-27T09:58:03;98624.97;;;10.88;32.26
10176;BME280;18221;38.704;0.152;2023-01-27T10:00:51;98621.41;;;10.97;32.33
10176;BME280;18221;38.704;0.152;2023-01-27T10:04:05;98631.19;;;11.14;32.35
10176;BME280;18221;38.704;0.152;2023-01-27T10:10:15;98624.19;;;11.13;32.25
10176;BME280;18221;38.704;0.152;2023-01-27T10:13:08;98621.13;;;11.18;32.15
10176;BME280;18221;38.704;0.152;2023-01-27T10:15:59;98621.13;;;11.18;32.43
10176;BME280;18221;38.704;0.152;2023-01-27T10:19:02;98631.59;;;11.02;32.36
10176;BME280;18221;38.704;0.152;2023-01-27T10:21:44;98625.03;;;11.14;32.82
10176;BME280;18221;38.704;0.152;2023-01-27T10:24:30;98622.47;;;11.22;32.57
10176;BME280;18221;38.704;0.152;2023-01-27T10:27:07;98630.72;;;11.37;32.46
10176;BME280;18221;38.704;0.152;2023-01-27T10:29:45;98632.28;;;11.47;32.57
10176;BME280;18221;38.704;0.152;2023-01-27T10:32:24;98632.66;;;11.52;33.15
10176;BME280;18221;38.704;0.152;2023-01-27T10:35:14;98635.06;;;11.38;32.17
10176;BME280;18221;38.704;0.152;2023-01-27T10:38:02;98635.38;;;11.60;32.18
10176;BME280;18221;38.704;0.152;2023-01-27T10:40:41;98632.97;;;11.67;31.95
10176;BME280;18221;38.704;0.152;2023-01-27T10:43:21;98633.56;;;11.61;31.56
10176;BME280;18221;38.704;0.152;2023-01-27T10:46:00;98633.19;;;11.73;31.17
10176;BME280;18221;38.704;0.152;2023-01-27T10:48:40;98634.59;;;11.68;30.11
10176;BME280;18221;38.704;0.152;2023-01-27T10:51:19;98634.88;;;11.74;30.01
10176;BME280;18221;38.704;0.152;2023-01-27T10:53:56;98640.34;;;11.73;29.74
10176;BME280;18221;38.704;0.152;2023-01-27T10:56:34;98635.28;;;11.88;29.48
10176;BME280;18221;38.704;0.152;2023-01-27T10:59:15;98622.78;;;11.80;30.19
10176;BME280;18221;38.704;0.152;2023-01-27T11:01:57;98620.16;;;11.88;30.35
10176;BME280;18221;38.704;0.152;2023-01-27T11:04:34;98622.03;;;11.70;29.89
10176;BME280;18221;38.704;0.152;2023-01-27T11:07:06;98615.78;;;11.79;30.33
10176;BME280;18221;38.704;0.152;2023-01-27T11:09:40;98609.72;;;11.95;30.57
10176;BME280;18221;38.704;0.152;2023-01-27T11:12:14;98615.06;;;12.03;30.46
10176;BME280;18221;38.704;0.152;2023-01-27T11:14:51;98611.78;;;12.09;29.93
10176;BME280;18221;38.704;0.152;2023-01-27T11:17:29;98616.81;;;12.12;30.20
10176;BME280;18221;38.704;0.152;2023-01-27T11:20:07;98598.94;;;11.96;30.04
10176;BME280;18221;38.704;0.152;2023-01-27T11:22:52;98597.69;;;12.16;29.96
10176;BME280;18221;38.704;0.152;2023-01-27T11:25:27;98584.72;;;12.21;29.85
10176;BME280;18221;38.704;0.152;2023-01-27T11:28:13;98592.44;;;12.32;29.06
10176;BME280;18221;38.704;0.152;2023-01-27T11:30:53;98589.88;;;12.23;29.14
10176;BME280;18221;38.704;0.152;2023-01-27T11:33:28;98584.47;;;12.41;29.05
10176;BME280;18221;38.704;0.152;2023-01-27T11:35:59;98580.34;;;12.46;29.24
10176;BME280;18221;38.704;0.152;2023-01-27T11:38:29;98579.66;;;12.44;28.98
10176;BME280;18221;38.704;0.152;2023-01-27T11:40:57;98567.66;;;12.40;28.58
10176;BME280;18221;38.704;0.152;2023-01-27T11:43:27;98566.22;;;12.54;28.76
10176;BME280;18221;38.704;0.152;2023-01-27T11:46:01;98567.56;;;12.66;28.66
10176;BME280;18221;38.704;0.152;2023-01-27T11:48:37;98559.88;;;12.55;27.91
10176;BME280;18221;38.704;0.152;2023-01-27T11:51:16;98555.91;;;12.59;28.25
10176;BME280;18221;38.704;0.152;2023-01-27T11:53:54;98545.59;;;12.64;28.19
10176;BME280;18221;38.704;0.152;2023-01-27T11:56:23;98543.19;;;12.45;27.53
10176;BME280;18221;38.704;0.152;2023-01-27T11:59:00;98548.03;;;12.49;27.42
10176;BME280;18221;38.704;0.152;2023-01-27T12:01:42;98540.09;;;12.73;27.80
10176;BME280;18221;38.704;0.152;2023-01-27T12:04:27;98531.59;;;12.70;27.21
10176;BME280;18221;38.704;0.152;2023-01-27T12:07:09;98524.13;;;12.81;27.22
10176;BME280;18221;38.704;0.152;2023-01-27T12:09:41;98529.78;;;12.86;26.65
10176;BME280;18221;38.704;0.152;2023-01-27T12:12:23;98528.78;;;12.79;27.39
10176;BME280;18221;38.704;0.152;2023-01-27T12:14:56;98526.94;;;12.88;27.53
10176;BME280;18221;38.704;0.152;2023-01-27T12:17:32;98524.97;;;12.90;26.83
10176;BME280;18221;38.704;0.152;2023-01-27T12:20:15;98521.47;;;12.97;26.69
10176;BME280;18221;38.704;0.152;2023-01-27T12:22:53;98513.63;;;12.88;25.99
10176;BME280;18221;38.704;0.152;2023-01-27T12:25:29;98514.31;;;12.90;26.34
10176;BME280;18221;38.704;0.152;2023-01-27T12:28:03;98515.31;;;12.97;26.00
10176;BME280;18221;38.704;0.152;2023-01-27T12:30:36;98516.47;;;13.02;26.71
10176;BME280;18221;38.704;0.152;2023-01-27T12:33:16;98508.28;;;13.04;26.51
10176;BME280;18221;38.704;0.152;2023-01-27T12:35:49;98517.47;;;13.42;26.39
10176;BME280;18221;38.704;0.152;2023-01-27T12:38:21;98511.38;;;13.72;26.94
10176;BME280;18221;38.704;0.152;2023-01-27T12:40:57;98514.22;;;13.71;26.92
10176;BME280;18221;38.704;0.152;2023-01-27T12:43:28;98507.41;;;13.68;26.35
10176;BME280;18221;38.704;0.152;2023-01-27T12:46:20;98510.25;;;13.50;25.20
10176;BME280;18221;38.704;0.152;2023-01-27T12:48:52;98503.94;;;13.43;25.95
10176;BME280;18221;38.704;0.152;2023-01-27T12:51:22;98508.06;;;13.62;26.62
10176;BME280;18221;38.704;0.152;2023-01-27T12:54:19;98503.22;;;13.74;26.34
10176;BME280;18221;38.704;0.152;2023-01-27T12:56:55;98503.56;;;13.63;26.79
10176;BME280;18221;38.704;0.152;2023-01-27T12:59:32;98503.41;;;13.56;27.30
10176;BME280;18221;38.704;0.152;2023-01-27T13:02:15;98499.56;;;13.67;26.37
10176;BME280;18221;38.704;0.152;2023-01-27T13:04:51;98495.56;;;13.71;26.62
10176;BME280;18221;38.704;0.152;2023-01-27T13:07:26;98499.06;;;13.71;25.94
10176;BME280;18221;38.704;0.152;2023-01-27T13:09:58;98492.44;;;13.98;26.08
10176;BME280;18221;38.704;0.152;2023-01-27T13:12:31;98501.44;;;14.05;26.13
10176;BME280;18221;38.704;0.152;2023-01-27T13:15:15;98495.03;;;14.14;26.25
10176;BME280;18221;38.704;0.152;2023-01-27T13:17:46;98491.25;;;14.00;25.44
10176;BME280;18221;38.704;0.152;2023-01-27T13:20:21;98490.06;;;14.03;25.79
10176;BME280;18221;38.704;0.152;2023-01-27T13:22:58;98488.06;;;14.44;26.39
10176;BME280;18221;38.704;0.152;2023-01-27T13:25:37;98489.00;;;14.51;26.31
10176;BME280;18221;38.704;0.152;2023-01-27T13:28:15;98495.28;;;14.27;27.17
10176;BME280;18221;38.704;0.152;2023-01-27T13:30:50;98497.97;;;14.27;27.33
10176;BME280;18221;38.704;0.152;2023-01-27T13:33:31;98486.56;;;14.41;26.31
10176;BME280;18221;38.704;0.152;2023-01-27T13:36:14;98485.75;;;14.63;26.63
10176;BME280;18221;38.704;0.152;2023-01-27T13:38:52;98485.97;;;14.76;27.52